sensor_id;sensor_type;location;lat;lon;timestamp;P1;durP1;ratioP1;P2;durP2;ratioP2
34725;SDS011;20951;50.818;4.344;2024-03-06T00:02:10;9.48;;;6.65;;
34725;SDS011;20951;50.818;4.344;2024-03-06T00:04:36;8.85;;;6.93;;
34725;SDS011;20951;50.818;4.344;2024-03-06T00:07:02;10.32;;;7.18;;
34725;SDS011;20951;50.818;4.344;2024-03-06T00:09:28;9.98;;;7.20;;
34725;SDS011;20951;50.818;4.344;2024-03-06T00:11:54;10.23;;;7.05;;
34725;SDS011;20951;50.818;4.344;2024-03-06T00:14:21;9.43;;;6.85;;
34725;SDS011;20951;50.818;4.344;2024-03-06T00:16:47;10.63;;;7.13;;
34725;SDS011;20951;50.818;4.344;2024-03-06T00:19:15;9.55;;;6.60;;
34725;SDS011;20951;50.818;4.344;2024-03-06T00:21:42;9.60;;;6.95;;
34725;SDS011;20951;50.818;4.344;2024-03-06T00:24:08;9.15;;;6.97;;
34725;SDS011;20951;50.818;4.344;2024-03-06T00:26:34;10.18;;;7.22;;
34725;SDS011;20951;50.818;4.344;2024-03-06T00:28:59;11.50;;;7.40;;
34725;SDS011;20951;50.818;4.344;2024-03-06T00:31:25;10.35;;;6.93;;
34725;SDS011;20951;50.818;4.344;2024-03-06T00:33:51;9.98;;;7.70;;
34725;SDS011;20951;50.818;4.344;2024-03-06T00:36:17;10.60;;;7.25;;
34725;SDS011;20951;50.818;4.344;2024-03-06T00:38:43;10.02;;;7.05;;
34725;SDS011;20951;50.818;4.344;2024-03-06T00:41:08;10.05;;;7.43;;
34725;SDS011;20951;50.818;4.344;2024-03-06T00:43:35;11.50;;;7.32;;
34725;SDS011;20951;50.818;4.344;2024-03-06T00:46:01;9.63;;;7.28;;
34725;SDS011;20951;50.818;4.344;2024-03-06T00:48:26;11.30;;;7.40;;
34725;SDS011;20951;50.818;4.344;2024-03-06T00:50:52;12.65;;;8.20;;
34725;SDS011;20951;50.818;4.344;2024-03-06T00:53:18;13.40;;;8.00;;
34725;SDS011;20951;50.818;4.344;2024-03-06T00:55:44;11.25;;;8.00;;
34725;SDS011;20951;50.818;4.344;2024-03-06T00:58:10;11.98;;;7.95;;
34725;SDS011;20951;50.818;4.344;2024-03-06T01:00:36;10.52;;;7.65;;
34725;SDS011;20951;50.818;4.344;2024-03-06T01:03:02;12.80;;;8.23;;
34725;SDS011;20951;50.818;4.344;2024-03-06T01:05:27;12.80;;;7.80;;
34725;SDS011;20951;50.818;4.344;2024-03-06T01:07:53;11.93;;;7.97;;
34725;SDS011;20951;50.818;4.344;2024-03-06T01:10:19;12.48;;;8.50;;
34725;SDS011;20951;50.818;4.344;2024-03-06T01:12:45;11.80;;;8.32;;
34725;SDS011;20951;50.818;4.344;2024-03-06T01:15:11;12.38;;;8.05;;
34725;SDS011;20951;50.818;4.344;2024-03-06T01:17:37;11.80;;;8.65;;
34725;SDS011;20951;50.818;4.344;2024-03-06T01:20:04;10.35;;;8.20;;
34725;SDS011;20951;50.818;4.344;2024-03-06T01:22:32;12.07;;;8.18;;
34725;SDS011;20951;50.818;4.344;2024-03-06T01:24:58;12.20;;;8.32;;
34725;SDS011;20951;50.818;4.344;2024-03-06T01:27:25;11.65;;;8.18;;
34725;SDS011;20951;50.818;4.344;2024-03-06T01:29:51;12.40;;;8.82;;
34725;SDS011;20951;50.818;4.344;2024-03-06T01:32:17;12.73;;;8.60;;
34725;SDS011;20951;50.818;4.344;2024-03-06T01:34:43;11.88;;;8.38;;
34725;SDS011;20951;50.818;4.344;2024-03-06T01:37:09;11.63;;;9.02;;
34725;SDS011;20951;50.818;4.344;2024-03-06T01:39:35;14.93;;;9.10;;
34725;SDS011;20951;50.818;4.344;2024-03-06T01:42:01;13.18;;;9.20;;
34725;SDS011;20951;50.818;4.344;2024-03-06T01:44:28;12.48;;;9.02;;
34725;SDS011;20951;50.818;4.344;2024-03-06T01:46:54;11.43;;;8.57;;
34725;SDS011;20951;50.818;4.344;2024-03-06T01:49:25;12.27;;;9.45;;
34725;SDS011;20951;50.818;4.344;2024-03-06T01:51:53;11.65;;;8.65;;
34725;SDS011;20951;50.818;4.344;2024-03-06T01:54:20;11.15;;;8.88;;
34725;SDS011;20951;50.818;4.344;2024-03-06T01:56:47;12.52;;;8.77;;
34725;SDS011;20951;50.818;4.344;2024-03-06T01:59:18;12.48;;;8.90;;
34725;SDS011;20951;50.818;4.344;2024-03-06T02:01:46;13.43;;;9.10;;
34725;SDS011;20951;50.818;4.344;2024-03-06T02:04:12;12.60;;;9.60;;
34725;SDS011;20951;50.818;4.344;2024-03-06T02:06:39;14.18;;;9.57;;
34725;SDS011;20951;50.818;4.344;2024-03-06T02:09:05;12.15;;;9.38;;
34725;SDS011;20951;50.818;4.344;2024-03-06T02:11:32;11.25;;;8.40;;
34725;SDS011;20951;50.818;4.344;2024-03-06T02:13:58;12.20;;;8.88;;
34725;SDS011;20951;50.818;4.344;2024-03-06T02:16:24;13.70;;;9.45;;
34725;SDS011;20951;50.818;4.344;2024-03-06T02:18:54;11.48;;;8.95;;
34725;SDS011;20951;50.818;4.344;2024-03-06T02:21:22;12.20;;;8.85;;
34725;SDS011;20951;50.818;4.344;2024-03-06T02:23:49;11.93;;;8.90;;
34725;SDS011;20951;50.818;4.344;2024-03-06T02:26:16;13.30;;;10.10;;
34725;SDS011;20951;50.818;4.344;2024-03-06T02:28:46;12.88;;;9.60;;
34725;SDS011;20951;50.818;4.344;2024-03-06T02:31:13;14.50;;;9.75;;
34725;SDS011;20951;50.818;4.344;2024-03-06T02:33:39;13.77;;;9.70;;
34725;SDS011;20951;50.818;4.344;2024-03-06T02:36:05;13.20;;;9.35;;
34725;SDS011;20951;50.818;4.344;2024-03-06T02:38:31;12.63;;;9.38;;
34725;SDS011;20951;50.818;4.344;2024-03-06T02:40:56;11.88;;;9.63;;
34725;SDS011;20951;50.818;4.344;2024-03-06T02:43:22;11.63;;;9.35;;
34725;SDS011;20951;50.818;4.344;2024-03-06T02:45:48;14.40;;;10.13;;
34725;SDS011;20951;50.818;4.344;2024-03-06T02:48:14;13.68;;;10.18;;
34725;SDS011;20951;50.818;4.344;2024-03-06T02:50:40;13.88;;;10.02;;
34725;SDS011;20951;50.818;4.344;2024-03-06T02:53:05;12.50;;;9.80;;
34725;SDS011;20951;50.818;4.344;2024-03-06T02:55:32;12.85;;;9.88;;
34725;SDS011;20951;50.818;4.344;2024-03-06T02:58:00;12.40;;;10.07;;
34725;SDS011;20951;50.818;4.344;2024-03-06T03:00:27;11.52;;;9.18;;
34725;SDS011;20951;50.818;4.344;2024-03-06T03:02:53;13.88;;;10.25;;
34725;SDS011;20951;50.818;4.344;2024-03-06T03:05:19;13.90;;;10.18;;
34725;SDS011;20951;50.818;4.344;2024-03-06T03:07:45;13.48;;;10.18;;
34725;SDS011;20951;50.818;4.344;2024-03-06T03:10:11;15.73;;;10.25;;
34725;SDS011;20951;50.818;4.344;2024-03-06T03:12:40;15.90;;;10.38;;
34725;SDS011;20951;50.818;4.344;2024-03-06T03:15:07;12.65;;;9.65;;
34725;SDS011;20951;50.818;4.344;2024-03-06T03:17:33;12.73;;;9.80;;
34725;SDS011;20951;50.818;4.344;2024-03-06T03:19:59;14.27;;;10.15;;
34725;SDS011;20951;50.818;4.344;2024-03-06T03:22:25;14.95;;;10.52;;
34725;SDS011;20951;50.818;4.344;2024-03-06T03:24:51;14.57;;;10.50;;
34725;SDS011;20951;50.818;4.344;2024-03-06T03:27:17;14.85;;;10.60;;
34725;SDS011;20951;50.818;4.344;2024-03-06T03:29:43;13.18;;;9.68;;
34725;SDS011;20951;50.818;4.344;2024-03-06T03:32:09;13.50;;;10.00;;
34725;SDS011;20951;50.818;4.344;2024-03-06T03:34:34;14.20;;;9.90;;
34725;SDS011;20951;50.818;4.344;2024-03-06T03:37:00;16.90;;;9.98;;
34725;SDS011;20951;50.818;4.344;2024-03-06T03:39:26;13.32;;;10.05;;
34725;SDS011;20951;50.818;4.344;2024-03-06T03:41:52;12.75;;;10.07;;
34725;SDS011;20951;50.818;4.344;2024-03-06T03:44:18;12.05;;;9.88;;
34725;SDS011;20951;50.818;4.344;2024-03-06T03:46:45;13.98;;;9.70;;
34725;SDS011;20951;50.818;4.344;2024-03-06T03:49:11;15.10;;;10.45;;
34725;SDS011;20951;50.818;4.344;2024-03-06T03:51:37;14.95;;;9.75;;
34725;SDS011;20951;50.818;4.344;2024-03-06T03:54:04;14.32;;;10.18;;
34725;SDS011;20951;50.818;4.344;2024-03-06T03:56:30;14.10;;;9.88;;
34725;SDS011;20951;50.818;4.344;2024-03-06T03:58:57;13.50;;;10.18;;
34725;SDS011;20951;50.818;4.344;2024-03-06T04:01:25;15.30;;;9.90;;
34725;SDS011;20951;50.818;4.344;2024-03-06T04:03:51;15.05;;;9.65;;
34725;SDS011;20951;50.818;4.344;2024-03-06T04:06:17;14.27;;;10.00;;
34725;SDS011;20951;50.818;4.344;2024-03-06T04:08:43;18.27;;;10.18;;
34725;SDS011;20951;50.818;4.344;2024-03-06T04:11:09;14.40;;;9.70;;
34725;SDS011;20951;50.818;4.344;2024-03-06T04:13:38;15.23;;;9.43;;
34725;SDS011;20951;50.818;4.344;2024-03-06T04:16:04;12.68;;;9.68;;
34725;SDS011;20951;50.818;4.344;2024-03-06T04:18:31;13.77;;;9.95;;
34725;SDS011;20951;50.818;4.344;2024-03-06T04:21:04;13.25;;;8.93;;
34725;SDS011;20951;50.818;4.344;2024-03-06T04:23:30;11.73;;;9.00;;
34725;SDS011;20951;50.818;4.344;2024-03-06T04:25:56;11.98;;;9.30;;
34725;SDS011;20951;50.818;4.344;2024-03-06T04:28:22;13.60;;;9.45;;
34725;SDS011;20951;50.818;4.344;2024-03-06T04:30:48;12.30;;;9.35;;
34725;SDS011;20951;50.818;4.344;2024-03-06T04:33:14;11.80;;;8.68;;
34725;SDS011;20951;50.818;4.344;2024-03-06T04:35:40;11.48;;;9.00;;
34725;SDS011;20951;50.818;4.344;2024-03-06T04:38:06;12.80;;;9.35;;
34725;SDS011;20951;50.818;4.344;2024-03-06T04:40:32;14.05;;;9.20;;
34725;SDS011;20951;50.818;4.344;2024-03-06T04:42:59;13.02;;;9.73;;
34725;SDS011;20951;50.818;4.344;2024-03-06T04:45:27;12.65;;;9.85;;
34725;SDS011;20951;50.818;4.344;2024-03-06T04:47:54;14.23;;;9.73;;
34725;SDS011;20951;50.818;4.344;2024-03-06T04:50:20;12.63;;;9.45;;
34725;SDS011;20951;50.818;4.344;2024-03-06T04:52:47;12.55;;;9.73;;
34725;SDS011;20951;50.818;4.344;2024-03-06T04:55:13;12.80;;;9.70;;
34725;SDS011;20951;50.818;4.344;2024-03-06T04:57:42;16.08;;;9.52;;
34725;SDS011;20951;50.818;4.344;2024-03-06T05:00:09;13.25;;;9.80;;
34725;SDS011;20951;50.818;4.344;2024-03-06T05:02:36;14.65;;;9.95;;
34725;SDS011;20951;50.818;4.344;2024-03-06T05:05:02;15.40;;;10.20;;
34725;SDS011;20951;50.818;4.344;2024-03-06T05:07:29;15.88;;;10.60;;
34725;SDS011;20951;50.818;4.344;2024-03-06T05:09:56;15.40;;;9.85;;
34725;SDS011;20951;50.818;4.344;2024-03-06T05:12:22;15.88;;;10.30;;
34725;SDS011;20951;50.818;4.344;2024-03-06T05:14:49;15.27;;;10.25;;
34725;SDS011;20951;50.818;4.344;2024-03-06T05:17:15;15.40;;;10.00;;
34725;SDS011;20951;50.818;4.344;2024-03-06T05:19:41;14.25;;;10.10;;
34725;SDS011;20951;50.818;4.344;2024-03-06T05:22:07;15.85;;;10.10;;
34725;SDS011;20951;50.818;4.344;2024-03-06T05:24:33;18.67;;;10.23;;
34725;SDS011;20951;50.818;4.344;2024-03-06T05:26:58;14.38;;;10.48;;
34725;SDS011;20951;50.818;4.344;2024-03-06T05:29:24;15.57;;;10.70;;
34725;SDS011;20951;50.818;4.344;2024-03-06T05:31:51;17.17;;;10.65;;
34725;SDS011;20951;50.818;4.344;2024-03-06T05:34:16;15.55;;;10.68;;
34725;SDS011;20951;50.818;4.344;2024-03-06T05:36:43;19.27;;;11.43;;
34725;SDS011;20951;50.818;4.344;2024-03-06T05:39:08;15.90;;;11.27;;
34725;SDS011;20951;50.818;4.344;2024-03-06T05:41:40;14.73;;;10.43;;
34725;SDS011;20951;50.818;4.344;2024-03-06T05:44:07;17.60;;;11.55;;
34725;SDS011;20951;50.818;4.344;2024-03-06T05:46:33;16.20;;;11.27;;
34725;SDS011;20951;50.818;4.344;2024-03-06T05:49:01;17.60;;;11.65;;
34725;SDS011;20951;50.818;4.344;2024-03-06T05:51:27;17.30;;;11.00;;
34725;SDS011;20951;50.818;4.344;2024-03-06T05:53:54;17.40;;;10.70;;
34725;SDS011;20951;50.818;4.344;2024-03-06T05:56:20;15.77;;;11.30;;
34725;SDS011;20951;50.818;4.344;2024-03-06T05:58:45;18.63;;;11.10;;
34725;SDS011;20951;50.818;4.344;2024-03-06T06:01:17;16.10;;;10.88;;
34725;SDS011;20951;50.818;4.344;2024-03-06T06:03:47;18.70;;;11.23;;
34725;SDS011;20951;50.818;4.344;2024-03-06T06:06:16;17.65;;;11.57;;
34725;SDS011;20951;50.818;4.344;2024-03-06T06:08:44;20.05;;;12.63;;
34725;SDS011;20951;50.818;4.344;2024-03-06T06:11:10;17.70;;;11.32;;
34725;SDS011;20951;50.818;4.344;2024-03-06T06:13:36;17.60;;;11.63;;
34725;SDS011;20951;50.818;4.344;2024-03-06T06:16:04;20.00;;;11.82;;
34725;SDS011;20951;50.818;4.344;2024-03-06T06:18:30;19.50;;;11.18;;
34725;SDS011;20951;50.818;4.344;2024-03-06T06:20:57;19.27;;;11.65;;
34725;SDS011;20951;50.818;4.344;2024-03-06T06:23:23;20.05;;;11.88;;
34725;SDS011;20951;50.818;4.344;2024-03-06T06:25:49;17.77;;;11.27;;
34725;SDS011;20951;50.818;4.344;2024-03-06T06:28:15;16.10;;;11.57;;
34725;SDS011;20951;50.818;4.344;2024-03-06T06:30:41;16.98;;;10.93;;
34725;SDS011;20951;50.818;4.344;2024-03-06T06:33:07;15.68;;;11.18;;
34725;SDS011;20951;50.818;4.344;2024-03-06T06:35:33;15.85;;;10.88;;
34725;SDS011;20951;50.818;4.344;2024-03-06T06:38:02;17.17;;;11.45;;
34725;SDS011;20951;50.818;4.344;2024-03-06T06:40:29;19.90;;;11.15;;
34725;SDS011;20951;50.818;4.344;2024-03-06T06:42:55;20.92;;;12.75;;
34725;SDS011;20951;50.818;4.344;2024-03-06T06:45:21;23.58;;;11.52;;
34725;SDS011;20951;50.818;4.344;2024-03-06T06:47:48;16.52;;;11.23;;
34725;SDS011;20951;50.818;4.344;2024-03-06T06:50:14;16.65;;;11.25;;
34725;SDS011;20951;50.818;4.344;2024-03-06T06:52:41;16.77;;;11.88;;
34725;SDS011;20951;50.818;4.344;2024-03-06T06:55:07;16.63;;;11.45;;
34725;SDS011;20951;50.818;4.344;2024-03-06T06:57:36;15.90;;;10.75;;
34725;SDS011;20951;50.818;4.344;2024-03-06T07:00:03;18.42;;;11.40;;
34725;SDS011;20951;50.818;4.344;2024-03-06T07:02:41;15.40;;;10.55;;
34725;SDS011;20951;50.818;4.344;2024-03-06T07:05:08;17.33;;;10.95;;
34725;SDS011;20951;50.818;4.344;2024-03-06T07:07:35;17.45;;;11.10;;
34725;SDS011;20951;50.818;4.344;2024-03-06T07:10:02;18.50;;;11.02;;
34725;SDS011;20951;50.818;4.344;2024-03-06T07:12:28;16.40;;;10.93;;
34725;SDS011;20951;50.818;4.344;2024-03-06T07:14:54;15.95;;;11.00;;
34725;SDS011;20951;50.818;4.344;2024-03-06T07:17:21;15.55;;;10.88;;
34725;SDS011;20951;50.818;4.344;2024-03-06T07:19:47;17.55;;;10.73;;
34725;SDS011;20951;50.818;4.344;2024-03-06T07:22:13;16.60;;;11.40;;
34725;SDS011;20951;50.818;4.344;2024-03-06T07:24:39;17.17;;;11.52;;
34725;SDS011;20951;50.818;4.344;2024-03-06T07:27:05;17.15;;;11.25;;
34725;SDS011;20951;50.818;4.344;2024-03-06T07:29:31;18.33;;;11.13;;
34725;SDS011;20951;50.818;4.344;2024-03-06T07:31:56;18.42;;;11.57;;
34725;SDS011;20951;50.818;4.344;2024-03-06T07:34:22;19.25;;;11.82;;
34725;SDS011;20951;50.818;4.344;2024-03-06T07:36:48;21.98;;;11.85;;
34725;SDS011;20951;50.818;4.344;2024-03-06T07:39:15;18.23;;;12.32;;
34725;SDS011;20951;50.818;4.344;2024-03-06T07:41:41;17.75;;;11.57;;
34725;SDS011;20951;50.818;4.344;2024-03-06T07:44:07;15.98;;;11.90;;
34725;SDS011;20951;50.818;4.344;2024-03-06T07:46:34;15.57;;;10.65;;
34725;SDS011;20951;50.818;4.344;2024-03-06T07:49:00;17.38;;;11.15;;
34725;SDS011;20951;50.818;4.344;2024-03-06T07:51:28;21.25;;;11.18;;
34725;SDS011;20951;50.818;4.344;2024-03-06T07:53:56;15.93;;;10.82;;
34725;SDS011;20951;50.818;4.344;2024-03-06T07:56:22;19.45;;;11.32;;
34725;SDS011;20951;50.818;4.344;2024-03-06T07:58:53;17.13;;;10.65;;
34725;SDS011;20951;50.818;4.344;2024-03-06T08:01:20;14.57;;;9.85;;
34725;SDS011;20951;50.818;4.344;2024-03-06T08:03:49;15.32;;;10.10;;
34725;SDS011;20951;50.818;4.344;2024-03-06T08:06:15;15.88;;;9.27;;
34725;SDS011;20951;50.818;4.344;2024-03-06T08:08:41;16.23;;;9.15;;
34725;SDS011;20951;50.818;4.344;2024-03-06T08:11:09;15.98;;;9.20;;
34725;SDS011;20951;50.818;4.344;2024-03-06T08:13:38;14.30;;;9.48;;
34725;SDS011;20951;50.818;4.344;2024-03-06T08:16:04;19.63;;;8.82;;
34725;SDS011;20951;50.818;4.344;2024-03-06T08:18:32;15.93;;;9.55;;
34725;SDS011;20951;50.818;4.344;2024-03-06T08:20:58;14.90;;;9.45;;
34725;SDS011;20951;50.818;4.344;2024-03-06T08:23:24;16.25;;;8.98;;
34725;SDS011;20951;50.818;4.344;2024-03-06T08:25:50;13.98;;;9.20;;
34725;SDS011;20951;50.818;4.344;2024-03-06T08:28:17;15.65;;;8.65;;
34725;SDS011;20951;50.818;4.344;2024-03-06T08:30:44;13.38;;;8.25;;
34725;SDS011;20951;50.818;4.344;2024-03-06T08:33:11;14.05;;;8.80;;
34725;SDS011;20951;50.818;4.344;2024-03-06T08:35:36;13.35;;;8.50;;
34725;SDS011;20951;50.818;4.344;2024-03-06T08:38:02;11.73;;;8.50;;
34725;SDS011;20951;50.818;4.344;2024-03-06T08:40:29;14.65;;;9.45;;
34725;SDS011;20951;50.818;4.344;2024-03-06T08:42:54;15.18;;;9.23;;
34725;SDS011;20951;50.818;4.344;2024-03-06T08:45:21;17.98;;;9.60;;
34725;SDS011;20951;50.818;4.344;2024-03-06T08:47:48;16.70;;;9.68;;
34725;SDS011;20951;50.818;4.344;2024-03-06T08:50:14;16.70;;;8.77;;
34725;SDS011;20951;50.818;4.344;2024-03-06T08:52:41;14.55;;;9.15;;
34725;SDS011;20951;50.818;4.344;2024-03-06T08:55:07;13.73;;;8.85;;
34725;SDS011;20951;50.818;4.344;2024-03-06T08:57:33;15.27;;;9.43;;
34725;SDS011;20951;50.818;4.344;2024-03-06T09:00:03;16.60;;;9.18;;
34725;SDS011;20951;50.818;4.344;2024-03-06T09:02:35;14.80;;;9.27;;
34725;SDS011;20951;50.818;4.344;2024-03-06T09:05:03;15.98;;;8.85;;
34725;SDS011;20951;50.818;4.344;2024-03-06T09:07:30;12.98;;;8.80;;
34725;SDS011;20951;50.818;4.344;2024-03-06T09:09:56;11.50;;;7.70;;
34725;SDS011;20951;50.818;4.344;2024-03-06T09:12:22;13.88;;;8.95;;
34725;SDS011;20951;50.818;4.344;2024-03-06T09:14:48;14.10;;;8.63;;
34725;SDS011;20951;50.818;4.344;2024-03-06T09:17:13;14.35;;;8.73;;
34725;SDS011;20951;50.818;4.344;2024-03-06T09:19:40;13.85;;;9.30;;
34725;SDS011;20951;50.818;4.344;2024-03-06T09:22:06;12.88;;;8.98;;
34725;SDS011;20951;50.818;4.344;2024-03-06T09:24:33;12.88;;;8.40;;
34725;SDS011;20951;50.818;4.344;2024-03-06T09:27:00;11.65;;;7.40;;
34725;SDS011;20951;50.818;4.344;2024-03-06T09:29:26;11.13;;;7.32;;
34725;SDS011;20951;50.818;4.344;2024-03-06T09:31:52;10.05;;;6.82;;
34725;SDS011;20951;50.818;4.344;2024-03-06T09:34:18;11.00;;;8.10;;
34725;SDS011;20951;50.818;4.344;2024-03-06T09:36:46;9.25;;;6.18;;
34725;SDS011;20951;50.818;4.344;2024-03-06T09:39:17;7.85;;;5.72;;
34725;SDS011;20951;50.818;4.344;2024-03-06T09:41:50;10.10;;;5.90;;
34725;SDS011;20951;50.818;4.344;2024-03-06T09:44:16;9.02;;;5.70;;
34725;SDS011;20951;50.818;4.344;2024-03-06T09:46:43;8.35;;;5.82;;
34725;SDS011;20951;50.818;4.344;2024-03-06T09:49:17;11.27;;;5.93;;
34725;SDS011;20951;50.818;4.344;2024-03-06T09:51:44;7.50;;;5.38;;
34725;SDS011;20951;50.818;4.344;2024-03-06T09:54:15;9.15;;;5.72;;
34725;SDS011;20951;50.818;4.344;2024-03-06T09:56:42;7.55;;;4.88;;
34725;SDS011;20951;50.818;4.344;2024-03-06T09:59:12;7.70;;;5.20;;
34725;SDS011;20951;50.818;4.344;2024-03-06T10:01:54;8.30;;;5.07;;
34725;SDS011;20951;50.818;4.344;2024-03-06T10:04:21;6.80;;;4.10;;
34725;SDS011;20951;50.818;4.344;2024-03-06T10:06:55;5.95;;;4.30;;
34725;SDS011;20951;50.818;4.344;2024-03-06T10:09:22;7.90;;;4.05;;
34725;SDS011;20951;50.818;4.344;2024-03-06T10:11:49;10.90;;;3.92;;
34725;SDS011;20951;50.818;4.344;2024-03-06T10:14:15;7.70;;;4.15;;
34725;SDS011;20951;50.818;4.344;2024-03-06T10:16:57;7.32;;;3.97;;
34725;SDS011;20951;50.818;4.344;2024-03-06T10:19:24;11.32;;;4.30;;
34725;SDS011;20951;50.818;4.344;2024-03-06T10:21:54;7.88;;;4.35;;
34725;SDS011;20951;50.818;4.344;2024-03-06T10:24:24;10.07;;;4.65;;
34725;SDS011;20951;50.818;4.344;2024-03-06T10:26:52;7.72;;;5.03;;
34725;SDS011;20951;50.818;4.344;2024-03-06T10:29:20;11.20;;;6.28;;
34725;SDS011;20951;50.818;4.344;2024-03-06T10:34:26;9.45;;;5.10;;
34725;SDS011;20951;50.818;4.344;2024-03-06T10:39:19;8.48;;;4.65;;
34725;SDS011;20951;50.818;4.344;2024-03-06T10:41:46;8.43;;;4.90;;
34725;SDS011;20951;50.818;4.344;2024-03-06T10:44:23;7.80;;;4.68;;
34725;SDS011;20951;50.818;4.344;2024-03-06T10:47:00;9.37;;;5.47;;
34725;SDS011;20951;50.818;4.344;2024-03-06T10:52:02;10.73;;;5.35;;
34725;SDS011;20951;50.818;4.344;2024-03-06T10:54:31;7.00;;;4.18;;
34725;SDS011;20951;50.818;4.344;2024-03-06T10:57:01;8.88;;;4.20;;
34725;SDS011;20951;50.818;4.344;2024-03-06T10:59:28;9.85;;;4.20;;
34725;SDS011;20951;50.818;4.344;2024-03-06T11:01:58;9.07;;;4.70;;
34725;SDS011;20951;50.818;4.344;2024-03-06T11:04:28;8.48;;;5.50;;
34725;SDS011;20951;50.818;4.344;2024-03-06T11:07:00;10.13;;;5.93;;
34725;SDS011;20951;50.818;4.344;2024-03-06T11:09:27;7.30;;;4.22;;
34725;SDS011;20951;50.818;4.344;2024-03-06T11:12:00;9.77;;;4.07;;
34725;SDS011;20951;50.818;4.344;2024-03-06T11:14:27;7.38;;;3.70;;
34725;SDS011;20951;50.818;4.344;2024-03-06T11:16:58;7.13;;;4.45;;
34725;SDS011;20951;50.818;4.344;2024-03-06T11:19:27;8.48;;;4.45;;
34725;SDS011;20951;50.818;4.344;2024-03-06T11:21:54;6.88;;;4.55;;
34725;SDS011;20951;50.818;4.344;2024-03-06T11:24:21;10.00;;;5.25;;
34725;SDS011;20951;50.818;4.344;2024-03-06T11:29:23;9.98;;;5.40;;
34725;SDS011;20951;50.818;4.344;2024-03-06T11:31:56;12.90;;;6.00;;
34725;SDS011;20951;50.818;4.344;2024-03-06T11:34:27;10.00;;;5.40;;
34725;SDS011;20951;50.818;4.344;2024-03-06T11:36:58;8.65;;;5.40;;
34725;SDS011;20951;50.818;4.344;2024-03-06T11:39:28;11.23;;;5.65;;
34725;SDS011;20951;50.818;4.344;2024-03-06T11:44:26;10.98;;;4.82;;
34725;SDS011;20951;50.818;4.344;2024-03-06T11:49:26;9.35;;;5.13;;
34725;SDS011;20951;50.818;4.344;2024-03-06T11:52:08;8.60;;;5.00;;
34725;SDS011;20951;50.818;4.344;2024-03-06T11:54:34;11.57;;;4.93;;
34725;SDS011;20951;50.818;4.344;2024-03-06T11:57:01;9.25;;;4.75;;
34725;SDS011;20951;50.818;4.344;2024-03-06T11:59:28;8.75;;;4.47;;
34725;SDS011;20951;50.818;4.344;2024-03-06T12:01:55;8.30;;;3.95;;
34725;SDS011;20951;50.818;4.344;2024-03-06T12:04:24;8.80;;;3.60;;
34725;SDS011;20951;50.818;4.344;2024-03-06T12:06:50;9.50;;;3.38;;
34725;SDS011;20951;50.818;4.344;2024-03-06T12:09:16;7.22;;;2.90;;
34725;SDS011;20951;50.818;4.344;2024-03-06T12:11:42;6.80;;;4.00;;
34725;SDS011;20951;50.818;4.344;2024-03-06T12:14:13;7.05;;;3.78;;
34725;SDS011;20951;50.818;4.344;2024-03-06T12:16:40;7.90;;;3.50;;
34725;SDS011;20951;50.818;4.344;2024-03-06T12:19:09;9.60;;;3.80;;
34725;SDS011;20951;50.818;4.344;2024-03-06T12:21:35;6.95;;;4.05;;
34725;SDS011;20951;50.818;4.344;2024-03-06T12:24:06;11.93;;;4.35;;
34725;SDS011;20951;50.818;4.344;2024-03-06T12:26:33;9.00;;;4.18;;
34725;SDS011;20951;50.818;4.344;2024-03-06T12:29:03;9.82;;;4.40;;
34725;SDS011;20951;50.818;4.344;2024-03-06T12:31:34;7.85;;;4.65;;
34725;SDS011;20951;50.818;4.344;2024-03-06T12:34:00;9.55;;;4.90;;
34725;SDS011;20951;50.818;4.344;2024-03-06T12:36:29;13.32;;;5.32;;
34725;SDS011;20951;50.818;4.344;2024-03-06T12:38:56;9.75;;;4.75;;
34725;SDS011;20951;50.818;4.344;2024-03-06T12:41:25;9.32;;;4.40;;
34725;SDS011;20951;50.818;4.344;2024-03-06T12:43:51;9.77;;;4.35;;
34725;SDS011;20951;50.818;4.344;2024-03-06T12:46:18;7.93;;;4.20;;
34725;SDS011;20951;50.818;4.344;2024-03-06T12:48:44;6.68;;;3.97;;
34725;SDS011;20951;50.818;4.344;2024-03-06T12:51:10;8.57;;;4.15;;
34725;SDS011;20951;50.818;4.344;2024-03-06T12:53:43;7.63;;;4.18;;
34725;SDS011;20951;50.818;4.344;2024-03-06T12:56:09;6.43;;;3.83;;
34725;SDS011;20951;50.818;4.344;2024-03-06T12:58:45;9.07;;;4.13;;
34725;SDS011;20951;50.818;4.344;2024-03-06T13:01:11;7.68;;;3.95;;
34725;SDS011;20951;50.818;4.344;2024-03-06T13:03:37;6.53;;;3.33;;
34725;SDS011;20951;50.818;4.344;2024-03-06T13:06:03;5.25;;;3.08;;
34725;SDS011;20951;50.818;4.344;2024-03-06T13:08:30;9.23;;;3.70;;
34725;SDS011;20951;50.818;4.344;2024-03-06T13:10:56;7.97;;;3.47;;
34725;SDS011;20951;50.818;4.344;2024-03-06T13:13:22;8.98;;;3.90;;
34725;SDS011;20951;50.818;4.344;2024-03-06T13:15:49;9.55;;;4.00;;
34725;SDS011;20951;50.818;4.344;2024-03-06T13:18:16;7.63;;;4.00;;
34725;SDS011;20951;50.818;4.344;2024-03-06T13:20:42;6.60;;;3.70;;
34725;SDS011;20951;50.818;4.344;2024-03-06T13:23:09;8.20;;;4.00;;
34725;SDS011;20951;50.818;4.344;2024-03-06T13:25:34;8.57;;;4.13;;
34725;SDS011;20951;50.818;4.344;2024-03-06T13:28:00;9.35;;;4.05;;
34725;SDS011;20951;50.818;4.344;2024-03-06T13:30:26;9.60;;;4.50;;
34725;SDS011;20951;50.818;4.344;2024-03-06T13:32:53;7.70;;;4.20;;
34725;SDS011;20951;50.818;4.344;2024-03-06T13:35:19;8.98;;;4.28;;
34725;SDS011;20951;50.818;4.344;2024-03-06T13:37:45;11.25;;;4.30;;
34725;SDS011;20951;50.818;4.344;2024-03-06T13:40:11;9.60;;;4.38;;
34725;SDS011;20951;50.818;4.344;2024-03-06T13:42:40;13.05;;;4.43;;
34725;SDS011;20951;50.818;4.344;2024-03-06T13:45:07;18.02;;;4.70;;
34725;SDS011;20951;50.818;4.344;2024-03-06T13:47:40;10.30;;;4.40;;
34725;SDS011;20951;50.818;4.344;2024-03-06T13:50:14;10.48;;;4.72;;
34725;SDS011;20951;50.818;4.344;2024-03-06T13:52:42;9.07;;;3.60;;
34725;SDS011;20951;50.818;4.344;2024-03-06T13:55:08;9.32;;;4.13;;
34725;SDS011;20951;50.818;4.344;2024-03-06T13:57:35;7.70;;;4.32;;
34725;SDS011;20951;50.818;4.344;2024-03-06T14:00:07;11.00;;;4.57;;
34725;SDS011;20951;50.818;4.344;2024-03-06T14:02:38;7.90;;;3.53;;
34725;SDS011;20951;50.818;4.344;2024-03-06T14:05:04;6.85;;;3.40;;
34725;SDS011;20951;50.818;4.344;2024-03-06T14:07:31;7.30;;;3.17;;
34725;SDS011;20951;50.818;4.344;2024-03-06T14:09:58;6.47;;;3.05;;
34725;SDS011;20951;50.818;4.344;2024-03-06T14:12:24;10.05;;;3.78;;
34725;SDS011;20951;50.818;4.344;2024-03-06T14:14:50;7.70;;;3.70;;
34725;SDS011;20951;50.818;4.344;2024-03-06T14:17:16;7.45;;;3.58;;
34725;SDS011;20951;50.818;4.344;2024-03-06T14:19:42;10.60;;;3.33;;
34725;SDS011;20951;50.818;4.344;2024-03-06T14:22:07;8.40;;;3.65;;
34725;SDS011;20951;50.818;4.344;2024-03-06T14:24:34;6.47;;;3.47;;
34725;SDS011;20951;50.818;4.344;2024-03-06T14:27:00;6.72;;;3.53;;
34725;SDS011;20951;50.818;4.344;2024-03-06T14:29:27;9.60;;;3.67;;
34725;SDS011;20951;50.818;4.344;2024-03-06T14:31:54;6.88;;;3.00;;
34725;SDS011;20951;50.818;4.344;2024-03-06T14:34:20;8.68;;;3.13;;
34725;SDS011;20951;50.818;4.344;2024-03-06T14:36:48;6.20;;;2.28;;
34725;SDS011;20951;50.818;4.344;2024-03-06T14:39:20;6.43;;;2.65;;
34725;SDS011;20951;50.818;4.344;2024-03-06T14:41:49;6.10;;;2.33;;
34725;SDS011;20951;50.818;4.344;2024-03-06T14:44:15;8.00;;;2.45;;
34725;SDS011;20951;50.818;4.344;2024-03-06T14:46:41;5.38;;;2.75;;
34725;SDS011;20951;50.818;4.344;2024-03-06T14:49:09;7.18;;;2.67;;
34725;SDS011;20951;50.818;4.344;2024-03-06T14:51:42;7.27;;;2.47;;